createdAt,value
2022-11-10T00:01:41.778Z,12.98
2022-11-10T00:04:30.855Z,12.97
2022-11-10T00:07:19.898Z,13.04
2022-11-10T00:10:11.143Z,12.98
2022-11-10T00:13:06.367Z,13.00
2022-11-10T00:16:08.035Z,13.04
2022-11-10T00:18:57.238Z,13.09
2022-11-10T00:21:46.005Z,13.11
2022-11-10T00:24:35.131Z,13.09
2022-11-10T00:27:24.150Z,13.03
2022-11-10T00:30:16.798Z,12.95
2022-11-10T00:33:05.989Z,12.89
2022-11-10T00:35:54.791Z,12.89
2022-11-10T00:38:43.626Z,12.95
2022-11-10T00:41:32.922Z,12.94
2022-11-10T00:44:22.314Z,12.98
2022-11-10T00:47:14.442Z,12.93
2022-11-10T00:50:03.795Z,12.99
2022-11-10T00:52:52.755Z,12.99
2022-11-10T00:55:42.304Z,13.00
2022-11-10T00:58:31.370Z,13.09
2022-11-10T01:01:22.345Z,13.17
2022-11-10T01:04:14.264Z,13.08
2022-11-10T01:07:03.750Z,13.00
2022-11-10T01:09:53.017Z,12.95
2022-11-10T01:12:42.156Z,12.92
2022-11-10T01:15:33.824Z,12.83
2022-11-10T01:18:22.741Z,12.71
2022-11-10T01:21:14.353Z,12.62
2022-11-10T01:24:03.431Z,12.67
2022-11-10T01:26:52.770Z,12.70
2022-11-10T01:29:42.251Z,12.71
2022-11-10T01:32:31.460Z,12.62
2022-11-10T01:35:20.633Z,12.60
2022-11-10T01:38:11.908Z,12.70
2022-11-10T01:41:01.877Z,12.72
2022-11-10T01:43:50.949Z,12.69
2022-11-10T01:46:39.862Z,12.77
2022-11-10T01:49:32.404Z,12.89
2022-11-10T01:52:21.965Z,12.98
2022-11-10T01:55:14.121Z,12.99
2022-11-10T01:58:03.666Z,12.92
2022-11-10T02:00:53.626Z,12.86
2022-11-10T02:03:48.600Z,12.82
2022-11-10T02:06:44.502Z,12.71
2022-11-10T02:09:33.494Z,12.67
2022-11-10T02:12:37.253Z,12.51
2022-11-10T02:15:26.750Z,12.38
2022-11-10T02:18:15.746Z,12.34
2022-11-10T02:21:10.239Z,12.29
2022-11-10T02:23:59.240Z,12.21
2022-11-10T02:26:54.007Z,12.16
2022-11-10T02:29:42.940Z,12.10
2022-11-10T02:32:31.688Z,12.10
2022-11-10T02:35:21.245Z,11.99
2022-11-10T02:38:13.531Z,11.99
2022-11-10T02:41:02.341Z,12.09
2022-11-10T02:43:52.207Z,12.15
2022-11-10T02:46:41.358Z,12.19
2022-11-10T02:49:30.733Z,12.16
2022-11-10T02:52:19.476Z,12.19
2022-11-10T02:55:12.150Z,12.19
2022-11-10T02:58:01.180Z,12.09
2022-11-10T03:00:50.513Z,11.98
2022-11-10T03:03:39.678Z,11.89
2022-11-10T03:06:28.713Z,11.81
2022-11-10T03:09:17.846Z,11.81
2022-11-10T03:12:10.185Z,11.75
2022-11-10T03:14:59.661Z,11.70
2022-11-10T03:17:48.612Z,11.63
2022-11-10T03:20:37.512Z,11.61
2022-11-10T03:23:26.226Z,11.63
2022-11-10T03:26:15.115Z,11.58
2022-11-10T03:29:06.841Z,11.49
2022-11-10T03:31:55.925Z,11.49
2022-11-10T03:34:45.230Z,11.46
2022-11-10T03:37:34.319Z,11.47
2022-11-10T03:40:23.786Z,11.45
2022-11-10T03:43:15.256Z,11.37
2022-11-10T03:46:06.328Z,11.32
2022-11-10T03:48:55.246Z,11.32
2022-11-10T03:51:44.060Z,11.38
2022-11-10T03:54:32.780Z,11.37
2022-11-10T03:57:21.948Z,11.25
2022-11-10T04:00:13.580Z,11.32
2022-11-10T04:03:05.041Z,11.34
2022-11-10T04:06:07.050Z,11.35
2022-11-10T04:09:01.928Z,11.27
2022-11-10T04:12:02.867Z,11.31
2022-11-10T04:15:03.883Z,11.26
2022-11-10T04:17:53.361Z,11.16
2022-11-10T04:20:44.840Z,11.19
2022-11-10T04:23:37.558Z,11.09
2022-11-10T04:26:33.666Z,11.00
2022-11-10T04:29:23.449Z,11.07
2022-11-10T04:32:12.432Z,11.06
2022-11-10T04:35:01.123Z,10.99
2022-11-10T04:37:52.921Z,10.93
2022-11-10T04:40:41.965Z,10.84
2022-11-10T04:43:31.609Z,10.90
2022-11-10T04:46:26.636Z,10.88
2022-11-10T04:49:15.424Z,10.94
2022-11-10T04:52:04.164Z,10.89
2022-11-10T04:54:56.032Z,10.81
2022-11-10T04:57:46.300Z,10.80
2022-11-10T05:00:35.937Z,10.99
2022-11-10T05:03:26.804Z,10.95
2022-11-10T05:06:16.306Z,10.99
2022-11-10T05:09:05.024Z,11.00
2022-11-10T05:11:56.477Z,11.01
2022-11-10T05:14:45.671Z,10.81
2022-11-10T05:17:34.690Z,10.72
2022-11-10T05:20:25.998Z,10.72
2022-11-10T05:23:27.217Z,10.74
2022-11-10T05:26:19.783Z,10.80
2022-11-10T05:29:11.357Z,10.81
2022-11-10T05:32:00.098Z,10.87
2022-11-10T05:34:49.205Z,10.82
2022-11-10T05:37:38.500Z,10.80
2022-11-10T05:40:27.787Z,10.80
2022-11-10T05:43:17.094Z,10.75
2022-11-10T05:46:09.195Z,10.76
2022-11-10T05:48:58.060Z,10.74
2022-11-10T05:51:46.994Z,10.61
2022-11-10T05:54:36.104Z,10.53
2022-11-10T05:57:25.770Z,10.43
2022-11-10T06:00:17.905Z,10.39
2022-11-10T06:03:16.696Z,10.34
2022-11-10T06:06:05.538Z,10.31
2022-11-10T06:08:56.515Z,10.28
2022-11-10T06:11:45.514Z,10.26
2022-11-10T06:14:34.816Z,10.35
2022-11-10T06:17:25.042Z,10.44
2022-11-10T06:20:18.340Z,10.56
2022-11-10T06:23:09.736Z,10.66
2022-11-10T06:25:58.846Z,10.75
2022-11-10T06:28:47.720Z,10.80
2022-11-10T06:31:36.386Z,10.82
2022-11-10T06:34:25.521Z,10.73
2022-11-10T06:37:17.462Z,10.61
2022-11-10T06:40:07.184Z,10.53
2022-11-10T06:42:56.184Z,10.60
2022-11-10T06:45:44.981Z,10.53
2022-11-10T06:48:33.994Z,10.39
2022-11-10T06:51:22.906Z,10.63
2022-11-10T06:54:14.753Z,10.69
2022-11-10T06:57:03.676Z,10.82
2022-11-10T06:59:53.158Z,10.96
2022-11-10T07:02:42.079Z,10.99
2022-11-10T07:05:31.069Z,10.91
2022-11-10T07:08:20.338Z,10.98
2022-11-10T07:11:12.045Z,10.95
2022-11-10T07:14:00.959Z,10.95
2022-11-10T07:16:49.837Z,11.01
2022-11-10T07:19:38.832Z,11.18
2022-11-10T07:22:27.919Z,11.21
2022-11-10T07:25:16.897Z,11.26
2022-11-10T07:28:11.551Z,11.33
2022-11-10T07:31:00.636Z,11.34
2022-11-10T07:33:54.385Z,11.41
2022-11-10T07:36:43.776Z,11.49
2022-11-10T07:39:32.878Z,11.53
2022-11-10T07:42:21.907Z,11.57
2022-11-10T07:45:16.845Z,11.55
2022-11-10T07:48:08.203Z,11.67
2022-11-10T07:50:56.984Z,11.68
2022-11-10T07:53:46.064Z,11.77
2022-11-10T07:56:34.643Z,11.78
2022-11-10T07:59:23.311Z,11.93
2022-11-10T08:02:15.621Z,12.05
2022-11-10T08:05:04.850Z,12.19
2022-11-10T08:07:56.523Z,12.51
2022-11-10T08:10:46.054Z,13.01
2022-11-10T08:13:35.090Z,13.75
2022-11-10T08:16:23.920Z,13.86
2022-11-10T08:19:15.695Z,14.37
2022-11-10T08:22:04.735Z,15.40
2022-11-10T08:24:53.636Z,15.64
2022-11-10T08:27:42.650Z,15.26
2022-11-10T08:30:32.398Z,14.74
2022-11-10T08:33:24.534Z,14.52
2022-11-10T08:36:16.325Z,14.53
2022-11-10T08:39:08.659Z,15.18
2022-11-10T08:41:57.787Z,16.12
2022-11-10T08:44:46.907Z,16.10
2022-11-10T08:47:36.044Z,15.96
2022-11-10T08:50:24.891Z,15.87
2022-11-10T08:53:18.706Z,16.23
2022-11-10T08:56:08.430Z,15.59
2022-11-10T08:58:57.673Z,15.33
2022-11-10T09:01:49.420Z,15.04
2022-11-10T09:04:38.262Z,14.92
2022-11-10T09:07:27.693Z,14.73
2022-11-10T09:10:20.390Z,14.90
2022-11-10T09:13:10.147Z,15.60
2022-11-10T09:15:59.065Z,16.50
2022-11-10T09:18:47.737Z,16.82
2022-11-10T09:21:36.765Z,16.88
2022-11-10T09:24:31.032Z,16.39
2022-11-10T09:27:23.452Z,16.29
2022-11-10T09:30:17.643Z,16.15
2022-11-10T09:33:07.411Z,16.39
2022-11-10T09:36:02.243Z,16.63
2022-11-10T09:38:51.390Z,16.49
2022-11-10T09:41:44.391Z,15.85
2022-11-10T09:44:39.257Z,15.62
2022-11-10T09:47:56.361Z,15.21
2022-11-10T09:50:51.729Z,15.67
2022-11-10T09:53:46.298Z,15.83
2022-11-10T09:56:37.386Z,15.54
2022-11-10T09:59:32.400Z,15.81
2022-11-10T10:02:31.408Z,16.22
2022-11-10T10:05:54.511Z,16.65
2022-11-10T10:09:02.484Z,16.66
2022-11-10T10:12:02.699Z,17.18
2022-11-10T10:15:19.866Z,16.83
2022-11-10T10:18:28.434Z,17.13
2022-11-10T10:21:46.011Z,16.53
2022-11-10T10:24:35.360Z,16.89
2022-11-10T10:27:29.210Z,16.76
2022-11-10T10:30:25.003Z,17.22
2022-11-10T10:33:24.192Z,17.59
2022-11-10T10:36:21.790Z,17.48
2022-11-10T10:39:18.454Z,17.75
2022-11-10T10:42:12.516Z,18.24
2022-11-10T10:45:21.814Z,18.27
2022-11-10T10:48:31.503Z,18.21
2022-11-10T10:51:35.160Z,18.17
2022-11-10T10:54:30.794Z,17.95
2022-11-10T10:57:27.578Z,18.55
2022-11-10T11:00:23.917Z,18.15
2022-11-10T11:03:25.047Z,19.23
2022-11-10T11:06:28.900Z,19.32
2022-11-10T11:09:22.833Z,19.67
2022-11-10T11:12:15.585Z,19.29
2022-11-10T11:15:26.688Z,20.65
2022-11-10T11:18:20.802Z,19.15
2022-11-10T11:21:33.742Z,17.73
2022-11-10T11:24:33.694Z,17.40
2022-11-10T11:27:33.972Z,18.95
2022-11-10T11:30:24.992Z,20.33
2022-11-10T11:33:22.630Z,21.48
2022-11-10T11:36:21.721Z,22.23
2022-11-10T11:39:31.041Z,21.17
2022-11-10T11:42:40.931Z,20.88
2022-11-10T11:45:39.935Z,20.38
2022-11-10T11:48:54.244Z,19.61
2022-11-10T11:51:54.877Z,18.79
2022-11-10T11:55:07.597Z,18.87
2022-11-10T11:58:26.969Z,18.80
2022-11-10T12:01:39.944Z,20.16
2022-11-10T12:04:58.486Z,20.30
2022-11-10T12:08:00.290Z,18.96
2022-11-10T12:11:01.189Z,17.85
2022-11-10T12:14:01.286Z,17.08
2022-11-10T12:17:02.465Z,17.43
2022-11-10T12:20:03.785Z,17.52
2022-11-10T12:23:04.309Z,16.97
2022-11-10T12:26:10.345Z,16.61
2022-11-10T12:29:09.946Z,16.58
2022-11-10T12:32:07.822Z,16.75
2022-11-10T12:35:03.786Z,16.53
2022-11-10T12:37:58.285Z,18.50
2022-11-10T12:40:52.094Z,19.57
2022-11-10T12:43:57.817Z,20.29
2022-11-10T12:46:51.908Z,20.51
2022-11-10T12:49:48.303Z,19.14
2022-11-10T12:52:44.901Z,19.14
2022-11-10T12:55:42.194Z,20.33
2022-11-10T12:58:31.343Z,21.17
2022-11-10T13:01:23.860Z,20.84
2022-11-10T13:04:17.809Z,19.44
2022-11-10T13:07:13.402Z,18.38
2022-11-10T13:10:25.118Z,17.64
2022-11-10T13:13:17.815Z,17.32
2022-11-10T13:16:07.317Z,16.83
2022-11-10T13:18:59.044Z,16.36
2022-11-10T13:22:15.457Z,15.89
2022-11-10T13:25:49.116Z,15.55
2022-11-10T13:29:03.994Z,15.45
2022-11-10T13:31:56.461Z,15.19
2022-11-10T13:34:48.911Z,15.25
2022-11-10T13:37:50.957Z,15.79
2022-11-10T13:40:44.046Z,16.08
2022-11-10T13:43:33.651Z,16.13
2022-11-10T13:46:23.451Z,15.71
2022-11-10T13:49:57.532Z,15.22
2022-11-10T13:53:04.409Z,14.89
2022-11-10T13:56:09.083Z,14.60
2022-11-10T13:58:58.670Z,14.42
2022-11-10T14:01:47.811Z,14.34
2022-11-10T14:04:45.243Z,14.26
2022-11-10T14:07:42.386Z,14.29
2022-11-10T14:10:42.805Z,14.23
2022-11-10T14:13:42.461Z,14.21
2022-11-10T14:16:35.437Z,14.07
2022-11-10T14:19:40.780Z,13.90
2022-11-10T14:22:42.646Z,13.81
2022-11-10T14:25:37.028Z,13.74
2022-11-10T14:28:30.154Z,13.54
2022-11-10T14:31:24.693Z,13.76
2022-11-10T14:34:19.258Z,13.71
2022-11-10T14:37:08.807Z,13.63
2022-11-10T14:40:02.543Z,13.59
2022-11-10T14:42:51.435Z,13.84
2022-11-10T14:45:41.332Z,13.68
2022-11-10T14:48:32.832Z,13.69
2022-11-10T14:51:22.765Z,13.64
2022-11-10T14:54:16.505Z,13.39
2022-11-10T14:57:09.631Z,13.28
2022-11-10T14:59:59.277Z,13.27
2022-11-10T15:02:48.688Z,13.28
2022-11-10T15:05:38.093Z,13.13
2022-11-10T15:08:27.170Z,13.08
2022-11-10T15:11:38.956Z,12.90
2022-11-10T15:14:42.724Z,12.81
2022-11-10T15:17:51.501Z,12.78
2022-11-10T15:20:43.031Z,12.70
2022-11-10T15:23:36.621Z,12.64
2022-11-10T15:26:28.260Z,12.57
2022-11-10T15:29:23.589Z,12.57
2022-11-10T15:32:25.019Z,12.45
2022-11-10T15:35:33.452Z,12.37
2022-11-10T15:38:35.582Z,12.39
2022-11-10T15:41:28.188Z,12.43
2022-11-10T15:44:21.042Z,12.35
2022-11-10T15:47:16.410Z,12.26
2022-11-10T15:50:14.280Z,12.31
2022-11-10T15:53:03.361Z,12.20
2022-11-10T15:55:52.100Z,12.30
2022-11-10T15:58:41.192Z,12.21
2022-11-10T16:01:30.467Z,12.20
2022-11-10T16:04:19.711Z,12.08
2022-11-10T16:07:11.887Z,12.12
2022-11-10T16:10:01.016Z,12.10
2022-11-10T16:12:50.187Z,12.12
2022-11-10T16:15:39.492Z,12.15
2022-11-10T16:18:31.179Z,12.06
2022-11-10T16:21:23.310Z,11.90
2022-11-10T16:24:15.098Z,11.96
2022-11-10T16:27:03.947Z,11.97
2022-11-10T16:29:53.107Z,11.88
2022-11-10T16:32:41.765Z,11.78
2022-11-10T16:35:31.114Z,11.81
2022-11-10T16:38:24.100Z,11.84
2022-11-10T16:41:17.426Z,11.84
2022-11-10T16:44:06.506Z,11.77
2022-11-10T16:46:58.387Z,11.69
2022-11-10T16:49:50.493Z,11.74
2022-11-10T16:52:39.804Z,11.63
2022-11-10T16:55:28.551Z,11.55
2022-11-10T16:58:20.574Z,11.49
2022-11-10T17:01:20.152Z,11.60
2022-11-10T17:04:12.818Z,11.68
2022-11-10T17:07:01.615Z,11.56
2022-11-10T17:09:50.703Z,11.48
2022-11-10T17:12:39.592Z,11.40
2022-11-10T17:15:32.388Z,11.55
2022-11-10T17:18:24.851Z,11.47
2022-11-10T17:21:16.196Z,11.44
2022-11-10T17:24:05.813Z,11.44
2022-11-10T17:26:54.683Z,11.31
2022-11-10T17:29:46.701Z,11.30
2022-11-10T17:33:03.648Z,11.39
2022-11-10T17:35:48.716Z,11.39
2022-11-10T17:38:37.681Z,11.48
2022-11-10T17:41:26.417Z,11.37
2022-11-10T17:44:17.061Z,11.39
2022-11-10T17:47:05.874Z,11.43
2022-11-10T17:49:57.215Z,11.43
2022-11-10T17:52:46.527Z,11.40
2022-11-10T17:55:36.998Z,11.38
2022-11-10T17:58:26.382Z,11.31
2022-11-10T18:01:22.205Z,11.26
2022-11-10T18:04:15.789Z,11.30
2022-11-10T18:07:07.663Z,11.33
2022-11-10T18:09:56.943Z,11.35
2022-11-10T18:12:46.225Z,11.35
2022-11-10T18:15:35.631Z,11.29
2022-11-10T18:18:24.916Z,11.22
2022-11-10T18:21:18.339Z,11.17
2022-11-10T18:24:10.396Z,11.15
2022-11-10T18:26:58.957Z,11.06
2022-11-10T18:29:48.238Z,11.08
2022-11-10T18:32:37.401Z,11.11
2022-11-10T18:35:26.800Z,11.11
2022-11-10T18:38:16.261Z,11.11
2022-11-10T18:41:22.197Z,11.10
2022-11-10T18:44:11.076Z,11.06
2022-11-10T18:47:00.072Z,11.08
2022-11-10T18:49:49.050Z,11.06
2022-11-10T18:52:37.834Z,11.07
2022-11-10T18:55:30.954Z,11.06
2022-11-10T18:59:58.283Z,10.96
2022-11-10T19:01:35.625Z,11.01
2022-11-10T19:04:25.135Z,11.02
2022-11-10T19:07:14.586Z,11.06
2022-11-10T19:10:06.784Z,11.04
2022-11-10T19:12:59.436Z,11.13
2022-11-10T19:15:59.067Z,11.06
2022-11-10T19:19:43.750Z,11.05
2022-11-10T19:22:36.218Z,11.12
2022-11-10T19:25:31.473Z,11.08
2022-11-10T19:28:27.369Z,11.08
2022-11-10T19:31:26.874Z,11.13
2022-11-10T19:34:24.181Z,11.19
2022-11-10T19:37:18.243Z,11.30
2022-11-10T19:40:11.108Z,11.34
2022-11-10T19:43:01.158Z,11.33
2022-11-10T19:45:54.334Z,11.32
2022-11-10T19:48:49.788Z,11.34
2022-11-10T19:51:42.960Z,11.33
2022-11-10T19:54:49.262Z,11.32
2022-11-10T19:57:38.350Z,11.43
2022-11-10T20:00:35.473Z,11.56
2022-11-10T20:03:25.011Z,11.65
2022-11-10T20:06:29.469Z,11.59
2022-11-10T20:09:22.148Z,11.56
2022-11-10T20:12:16.491Z,11.58
2022-11-10T20:15:11.161Z,11.50
2022-11-10T20:18:05.281Z,11.59
2022-11-10T20:21:08.920Z,11.59
2022-11-10T20:24:16.108Z,11.60
2022-11-10T20:27:05.176Z,11.53
2022-11-10T20:30:00.275Z,11.45
2022-11-10T20:32:57.064Z,11.37
2022-11-10T20:35:53.115Z,11.36
2022-11-10T20:38:47.002Z,11.38
2022-11-10T20:41:42.784Z,11.41
2022-11-10T20:44:35.341Z,11.46
2022-11-10T20:47:32.045Z,11.48
2022-11-10T20:50:24.623Z,11.52
2022-11-10T20:53:15.888Z,11.45
2022-11-10T20:56:05.497Z,11.39
2022-11-10T20:59:04.508Z,11.38
2022-11-10T21:01:53.564Z,11.35
2022-11-10T21:04:43.310Z,11.36
2022-11-10T21:07:32.638Z,11.38
2022-11-10T21:10:21.863Z,11.29
2022-11-10T21:13:10.743Z,11.19
2022-11-10T21:16:05.340Z,11.01
2022-11-10T21:18:58.867Z,10.94
2022-11-10T21:21:47.514Z,10.90
2022-11-10T21:24:36.668Z,10.77
2022-11-10T21:27:27.698Z,10.66
2022-11-10T21:30:22.996Z,10.69
2022-11-10T21:33:14.552Z,10.75
2022-11-10T21:36:08.967Z,10.64
2022-11-10T21:38:58.657Z,10.70
2022-11-10T21:41:47.141Z,10.71
2022-11-10T21:44:35.775Z,10.68
2022-11-10T21:47:24.718Z,10.61
2022-11-10T21:50:16.580Z,10.60
2022-11-10T21:53:09.854Z,10.58
2022-11-10T21:56:01.368Z,10.67
2022-11-10T21:58:50.300Z,10.77
2022-11-10T22:01:39.186Z,10.59
2022-11-10T22:04:30.003Z,10.60
2022-11-10T22:07:27.155Z,10.70
2022-11-10T22:10:28.294Z,10.72
2022-11-10T22:13:31.631Z,10.76
2022-11-10T22:16:42.382Z,10.78
2022-11-10T22:19:31.134Z,10.72
2022-11-10T22:22:22.591Z,10.64
2022-11-10T22:25:12.380Z,10.67
2022-11-10T22:28:01.322Z,10.64
2022-11-10T22:30:50.627Z,10.66
2022-11-10T22:33:42.450Z,10.72
2022-11-10T22:36:31.158Z,10.74
2022-11-10T22:39:23.667Z,10.84
2022-11-10T22:42:27.629Z,10.83
2022-11-10T22:45:16.368Z,10.86
2022-11-10T22:48:17.787Z,10.93
2022-11-10T22:51:06.646Z,10.95
2022-11-10T22:53:55.720Z,10.90
2022-11-10T22:56:48.475Z,10.85
2022-11-10T22:59:37.327Z,10.84
2022-11-10T23:02:26.358Z,10.83
2022-11-10T23:05:15.632Z,10.83
2022-11-10T23:08:04.462Z,10.80
2022-11-10T23:11:01.513Z,10.79
2022-11-10T23:13:53.703Z,10.81
2022-11-10T23:16:42.695Z,10.73
2022-11-10T23:19:31.740Z,10.69
2022-11-10T23:22:20.998Z,10.71
2022-11-10T23:25:11.369Z,10.69
2022-11-10T23:28:00.351Z,10.65
2022-11-10T23:30:51.868Z,10.64
2022-11-10T23:33:42.047Z,10.69
2022-11-10T23:36:31.295Z,10.71
2022-11-10T23:39:20.335Z,10.67
2022-11-10T23:42:09.379Z,10.58
2022-11-10T23:44:58.003Z,10.51
2022-11-10T23:47:49.252Z,10.47
2022-11-10T23:50:38.025Z,10.45
2022-11-10T23:53:27.307Z,10.50
2022-11-10T23:56:17.082Z,10.52
2022-11-10T23:59:05.950Z,10.49
